createdAt,value
2023-09-08T00:00:43.978Z,82.12179
2023-09-08T00:05:56.079Z,84.82338
2023-09-08T00:11:08.119Z,85.2241
2023-09-08T00:16:20.133Z,84.19653
2023-09-08T00:21:32.154Z,84.86749
2023-09-08T00:26:44.336Z,83.61425
2023-09-08T00:31:56.449Z,83.95674
2023-09-08T00:37:08.552Z,84.46589
2023-09-08T00:42:20.464Z,84.25185
2023-09-08T00:47:32.558Z,85.93432
2023-09-08T00:52:44.630Z,90.33326
2023-09-08T00:57:56.576Z,90.39388
2023-09-08T01:03:11.591Z,86.42619
2023-09-08T01:08:23.745Z,88.62142
2023-09-08T01:13:35.940Z,86.2314
2023-09-08T01:18:47.946Z,86.18521
2023-09-08T01:24:02.430Z,87.65125
2023-09-08T01:29:14.534Z,88.0801
2023-09-08T01:34:27.141Z,89.86056
2023-09-08T01:39:39.261Z,92.10842
2023-09-08T01:44:51.301Z,93.25605
2023-09-08T01:50:03.355Z,93.1918
2023-09-08T01:55:15.865Z,94.99596
2023-09-08T02:00:27.993Z,94.71565
2023-09-08T02:05:40.196Z,90.23035
2023-09-08T02:10:52.307Z,89.89907
2023-09-08T02:16:04.436Z,90.35963
2023-09-08T02:21:16.646Z,90.69492
2023-09-08T02:26:28.662Z,91.12335
2023-09-08T02:31:40.578Z,92.26294
2023-09-08T02:36:52.656Z,90.09095
2023-09-08T02:42:04.690Z,90.162
2023-09-08T02:47:16.648Z,91.24496
2023-09-08T02:52:28.837Z,91.09196
2023-09-08T02:57:40.747Z,89.89051
2023-09-08T03:02:52.819Z,92.81096
2023-09-08T03:08:04.866Z,94.35895
2023-09-08T03:13:16.858Z,93.46548
2023-09-08T03:18:28.849Z,93.66182
2023-09-08T03:23:40.833Z,92.55193
2023-09-08T03:28:52.787Z,91.2268
2023-09-08T03:34:04.757Z,91.92829
2023-09-08T03:39:16.860Z,91.78131
2023-09-08T03:44:28.934Z,93.83964
2023-09-08T03:49:40.975Z,92.36192
2023-09-08T03:54:53.532Z,92.90159
2023-09-08T04:00:05.425Z,93.71591
2023-09-08T04:05:17.945Z,92.10087
2023-09-08T04:10:29.904Z,90.70267
2023-09-08T04:15:41.867Z,92.23898
2023-09-08T04:20:53.883Z,93.0794
2023-09-08T04:26:05.841Z,92.17711
2023-09-08T04:31:21.389Z,91.59566
2023-09-08T04:36:33.451Z,92.71355
2023-09-08T04:41:45.503Z,94.24706
2023-09-08T04:46:57.441Z,94.57954
2023-09-08T04:52:09.391Z,95.53482
2023-09-08T04:57:24.218Z,94.41611
2023-09-08T05:02:36.447Z,94.03464
2023-09-08T05:07:48.484Z,94.74702
2023-09-08T05:13:00.422Z,98.25665
2023-09-08T05:18:12.549Z,99.9557
2023-09-08T05:23:24.738Z,100.8834
2023-09-08T05:28:39.429Z,101.5011
2023-09-08T05:33:52.026Z,100.8002
2023-09-08T05:39:04.033Z,95.5573
2023-09-08T05:44:15.995Z,89.38132
2023-09-08T05:49:28.070Z,85.49976
2023-09-08T05:54:40.187Z,82.66945
2023-09-08T05:59:52.147Z,80.67516
2023-09-08T06:05:04.124Z,78.78887
2023-09-08T06:10:16.208Z,75.72444
2023-09-08T06:15:28.228Z,74.01923
2023-09-08T06:20:40.269Z,70.92947
2023-09-08T06:25:52.857Z,69.12265
2023-09-08T06:31:04.806Z,68.59274
2023-09-08T06:36:16.931Z,65.60009
2023-09-08T06:41:28.920Z,63.89764
2023-09-08T06:46:41.086Z,62.86455
2023-09-08T06:51:53.207Z,62.86097
2023-09-08T06:57:05.404Z,62.1314
2023-09-08T07:02:17.587Z,61.87926
2023-09-08T07:07:29.606Z,62.47757
2023-09-08T07:18:02.678Z,62.42053
2023-09-08T07:23:16.289Z,63.89305
2023-09-08T07:28:28.183Z,63.84977
2023-09-08T07:33:40.125Z,61.1105
2023-09-08T07:38:52.181Z,60.75326
2023-09-08T07:44:04.347Z,61.54649
2023-09-08T07:49:16.355Z,55.81416
2023-09-08T07:54:28.256Z,59.11789
2023-09-08T07:59:40.209Z,56.60558
2023-09-08T08:04:52.247Z,55.85165
2023-09-08T08:10:04.221Z,55.20128
2023-09-08T08:15:16.153Z,53.8872
2023-09-08T08:20:29.149Z,52.41326
2023-09-08T08:25:41.173Z,50.85701
2023-09-08T08:36:13.174Z,48.60971
2023-09-08T08:41:25.140Z,45.77686
2023-09-08T08:46:37.095Z,45.37301
2023-09-08T08:51:49.182Z,44.03553
2023-09-08T08:57:07.593Z,43.55332
2023-09-08T09:02:19.726Z,43.63049
2023-09-08T09:07:31.794Z,43.65421
2023-09-08T09:12:43.699Z,44.11129
2023-09-08T09:17:57.229Z,42.51887
2023-09-08T09:23:09.371Z,40.95411
2023-09-08T09:28:21.492Z,41.1289
2023-09-08T09:33:33.475Z,38.78585
2023-09-08T09:38:47.825Z,39.63276
2023-09-08T09:43:59.836Z,37.01313
2023-09-08T09:49:11.794Z,38.32143
2023-09-08T09:54:23.908Z,37.64127
2023-09-08T09:59:35.827Z,38.28095
2023-09-08T10:04:47.873Z,36.03271
2023-09-08T10:09:59.781Z,38.9324
2023-09-08T10:15:11.776Z,37.52345
2023-09-08T10:20:23.720Z,37.66082
2023-09-08T10:25:35.651Z,37.19428
2023-09-08T10:30:47.630Z,35.77085
2023-09-08T10:35:59.599Z,34.76979
2023-09-08T10:41:11.557Z,32.65733
2023-09-08T10:46:23.479Z,34.99919
2023-09-08T10:51:35.444Z,31.58497
2023-09-08T10:56:47.404Z,38.15953
2023-09-08T11:01:59.934Z,35.93102
2023-09-08T11:07:11.861Z,35.2971
2023-09-08T11:12:25.545Z,34.17319
2023-09-08T11:22:55.229Z,31.47972
2023-09-08T11:28:07.380Z,33.87898
2023-09-08T11:33:19.829Z,32.73421
2023-09-08T11:38:34.589Z,32.9771
2023-09-08T11:49:04.371Z,26.62674
2023-09-08T11:54:16.362Z,30.23913
2023-09-08T11:59:28.309Z,32.11601
2023-09-08T12:04:40.208Z,33.61381
2023-09-08T12:09:52.166Z,31.32384
2023-09-08T12:15:04.079Z,31.42303
2023-09-08T12:20:16.207Z,32.76424
2023-09-08T12:25:28.246Z,28.77645
2023-09-08T12:30:40.327Z,32.5298
2023-09-08T12:35:52.641Z,32.66615
2023-09-08T12:41:06.625Z,34.86347
2023-09-08T12:46:18.613Z,31.46917
2023-09-08T12:51:31.843Z,32.38133
2023-09-08T12:56:43.730Z,33.02242
2023-09-08T13:01:57.536Z,34.75327
2023-09-08T13:07:09.808Z,35.83286
2023-09-08T13:12:21.924Z,36.7567
2023-09-08T13:17:33.908Z,38.04015
2023-09-08T13:22:45.923Z,35.69875
2023-09-08T13:27:57.917Z,36.80367
2023-09-08T13:33:09.965Z,37.71869
2023-09-08T13:43:39.620Z,39.18894
2023-09-08T13:48:53.189Z,39.59366
2023-09-08T13:54:08.195Z,39.48317
2023-09-08T13:59:26.167Z,41.25117
2023-09-08T14:04:41.214Z,40.0124
2023-09-08T14:10:06.833Z,42.00082
2023-09-08T14:15:31.770Z,39.21609
2023-09-08T14:20:43.952Z,40.05849
2023-09-08T14:26:00.183Z,39.55703
2023-09-08T14:36:36.924Z,40.0067
2023-09-08T14:41:49.017Z,39.12532
2023-09-08T14:47:00.940Z,38.90807
2023-09-08T14:52:12.858Z,39.01566
2023-09-08T14:57:24.947Z,38.87309
2023-09-08T15:02:37.028Z,38.34868
2023-09-08T15:07:49.204Z,38.23502
2023-09-08T15:13:01.238Z,38.33457
2023-09-08T15:18:13.374Z,38.43536
2023-09-08T15:23:25.446Z,38.54493
2023-09-08T15:28:37.482Z,39.37046
2023-09-08T15:33:49.561Z,39.45833
2023-09-08T15:39:01.745Z,38.86241
2023-09-08T15:44:15.395Z,39.82932
2023-09-08T15:49:27.587Z,39.33097
2023-09-08T15:54:40.736Z,39.9433
2023-09-08T15:59:52.643Z,39.84209
2023-09-08T16:05:04.744Z,40.37371
2023-09-08T16:10:17.893Z,40.10108
2023-09-08T16:15:30.318Z,40.33032
2023-09-08T16:20:42.310Z,40.50014
2023-09-08T16:25:54.240Z,41.64092
2023-09-08T16:31:06.196Z,41.27912
2023-09-08T16:36:18.221Z,41.94205
2023-09-08T16:41:30.404Z,41.04017
2023-09-08T16:46:42.363Z,42.70333
2023-09-08T16:51:54.272Z,42.5523
2023-09-08T16:57:07.907Z,42.29929
2023-09-08T17:02:20.187Z,42.66909
2023-09-08T17:07:32.784Z,43.82471
2023-09-08T17:12:45.164Z,45.40155
2023-09-08T17:17:57.167Z,45.68903
2023-09-08T17:23:09.195Z,45.1979
2023-09-08T17:33:41.327Z,46.84175
2023-09-08T17:38:53.499Z,47.41713
2023-09-08T17:44:05.475Z,47.82263
2023-09-08T17:49:17.391Z,48.01934
2023-09-08T17:54:30.440Z,48.32566
2023-09-08T17:59:42.408Z,48.29909
2023-09-08T18:04:54.336Z,49.31214
2023-09-08T18:10:06.299Z,49.87184
2023-09-08T18:15:19.998Z,51.93692
2023-09-08T18:20:32.495Z,56.16709
2023-09-08T18:25:44.559Z,57.03674
2023-09-08T18:30:56.594Z,58.15095
2023-09-08T18:36:08.733Z,59.99919
2023-09-08T18:41:20.775Z,62.12089
2023-09-08T18:46:32.732Z,58.66872
2023-09-08T18:51:45.985Z,59.86727
2023-09-08T18:56:58.394Z,60.16674
2023-09-08T19:02:10.307Z,60.10042
2023-09-08T19:07:22.288Z,61.54954
2023-09-08T19:12:34.293Z,63.41023
2023-09-08T19:17:46.336Z,62.42879
2023-09-08T19:22:58.279Z,62.61948
2023-09-08T19:28:10.234Z,63.79156
2023-09-08T19:33:24.507Z,64.22436
2023-09-08T19:38:36.535Z,65.56268
2023-09-08T19:43:48.460Z,64.86716
2023-09-08T19:49:00.427Z,65.40277
2023-09-08T19:54:12.383Z,67.64296
2023-09-08T19:59:25.806Z,66.74866
2023-09-08T20:04:37.709Z,67.64126
2023-09-08T20:09:49.616Z,65.44716
2023-09-08T20:15:01.683Z,67.55604
2023-09-08T20:20:13.782Z,67.94831
2023-09-08T20:25:25.702Z,69.20913
2023-09-08T20:30:37.661Z,69.30749
2023-09-08T20:35:49.575Z,70.50125
2023-09-08T20:41:01.467Z,69.83464
2023-09-08T20:46:13.447Z,70.94932
2023-09-08T20:51:25.424Z,73.73804
2023-09-08T20:56:37.314Z,81.5835
2023-09-08T21:01:53.706Z,78.02016
2023-09-08T21:07:05.806Z,74.40699
2023-09-08T21:12:17.925Z,74.57079
2023-09-08T21:17:29.982Z,74.36236
2023-09-08T21:22:46.047Z,73.8363
2023-09-08T21:27:58.041Z,75.34007
2023-09-08T21:33:10.305Z,75.9034
2023-09-08T21:38:22.345Z,75.25848
2023-09-08T21:43:34.457Z,75.18417
2023-09-08T21:48:46.859Z,75.0472
2023-09-08T21:53:58.825Z,75.26923
2023-09-08T21:59:10.985Z,76.68145
2023-09-08T22:04:23.367Z,79.39108
2023-09-08T22:09:35.780Z,79.74323
2023-09-08T22:14:50.376Z,78.27475
2023-09-08T22:20:02.382Z,77.90491
2023-09-08T22:25:14.457Z,79.93832
2023-09-08T22:30:26.386Z,77.76192
2023-09-08T22:35:40.881Z,76.63516
2023-09-08T22:40:52.855Z,78.261
2023-09-08T22:46:05.680Z,79.57565
2023-09-08T22:51:17.596Z,78.08709
2023-09-08T22:56:30.305Z,77.79956
2023-09-08T23:01:43.352Z,80.39755
2023-09-08T23:06:55.286Z,79.35912
2023-09-08T23:12:07.367Z,80.97572
2023-09-08T23:17:24.040Z,81.64629
2023-09-08T23:22:36.744Z,78.7523
2023-09-08T23:27:49.508Z,80.28057
2023-09-08T23:33:02.118Z,79.28793
2023-09-08T23:38:15.438Z,79.25217
2023-09-08T23:43:27.345Z,80.65395
2023-09-08T23:48:39.822Z,80.70212
2023-09-08T23:53:51.767Z,82.41069
2023-09-08T23:59:05.395Z,81.46864
